createdAt,value
2022-11-24T04:41:24.098Z,3.78
2022-11-24T04:44:27.557Z,3.78
2022-11-24T04:47:30.049Z,3.27
2022-11-24T04:50:37.133Z,3.22
2022-11-24T04:53:39.624Z,3.16
2022-11-24T04:56:43.872Z,3.15
2022-11-24T04:59:46.467Z,3.08
2022-11-24T05:02:49.251Z,3.09
2022-11-24T05:05:51.695Z,3.11
2022-11-24T05:08:54.528Z,3.04
2022-11-24T05:11:57.196Z,3.09
2022-11-24T05:15:01.533Z,3.07
2022-11-24T05:18:09.397Z,3.11
2022-11-24T05:21:12.572Z,3.15
2022-11-24T05:24:15.069Z,3.19
2022-11-24T05:27:17.850Z,3.21
2022-11-24T05:30:20.378Z,3.36
2022-11-24T05:33:23.149Z,3.46
2022-11-24T05:36:44.890Z,3.49
2022-11-24T05:39:47.854Z,3.52
2022-11-24T05:42:50.334Z,3.51
2022-11-24T05:45:53.304Z,3.61
2022-11-24T05:48:55.892Z,3.56
2022-11-24T05:51:58.752Z,3.62
2022-11-24T05:55:01.240Z,3.64
2022-11-24T05:58:06.424Z,3.62
2022-11-24T06:01:09.005Z,3.58
2022-11-24T06:04:11.774Z,3.65
2022-11-24T06:07:14.821Z,3.70
2022-11-24T06:10:19.413Z,3.69
2022-11-24T06:13:21.964Z,3.72
2022-11-24T06:16:24.851Z,3.77
2022-11-24T06:19:27.597Z,3.92
2022-11-24T06:22:30.801Z,4.02
2022-11-24T06:25:33.160Z,3.99
2022-11-24T06:28:36.268Z,3.93
2022-11-24T06:31:38.845Z,4.00
2022-11-24T06:34:41.757Z,4.12
2022-11-24T06:37:45.777Z,4.06
2022-11-24T06:40:48.690Z,4.14
2022-11-24T06:43:51.158Z,4.19
2022-11-24T06:46:54.002Z,4.25
2022-11-24T06:49:56.695Z,4.28
2022-11-24T06:52:59.391Z,4.32
2022-11-24T06:56:02.603Z,4.40
2022-11-24T06:59:05.536Z,4.33
2022-11-24T07:02:10.230Z,4.38
2022-11-24T07:05:16.071Z,4.37
2022-11-24T07:08:18.679Z,4.53
2022-11-24T07:11:23.661Z,4.55
2022-11-24T07:14:27.011Z,4.44
2022-11-24T07:17:29.895Z,4.58
2022-11-24T07:20:32.611Z,4.61
2022-11-24T07:23:35.511Z,4.66
2022-11-24T07:26:38.068Z,4.56
2022-11-24T07:29:40.862Z,4.62
2022-11-24T07:32:43.357Z,4.69
2022-11-24T07:35:46.187Z,4.80
2022-11-24T07:38:49.083Z,4.92
2022-11-24T07:41:51.842Z,4.95
2022-11-24T07:44:54.382Z,4.95
2022-11-24T07:47:57.150Z,4.96
2022-11-24T07:51:00.574Z,5.07
2022-11-24T07:54:03.666Z,5.10
2022-11-24T07:57:06.144Z,5.11
2022-11-24T08:00:12.936Z,5.16
2022-11-24T08:03:16.027Z,5.17
2022-11-24T08:06:31.712Z,5.19
2022-11-24T08:09:38.969Z,5.21
2022-11-24T08:12:43.825Z,5.18
2022-11-24T08:15:46.778Z,5.21
2022-11-24T08:18:51.528Z,5.27
2022-11-24T08:21:54.518Z,5.36
2022-11-24T08:24:57.029Z,5.40
2022-11-24T08:28:01.213Z,5.52
2022-11-24T08:31:10.098Z,5.59
2022-11-24T08:34:14.754Z,5.60
2022-11-24T08:37:17.373Z,5.69
2022-11-24T08:40:20.655Z,5.70
2022-11-24T08:43:23.147Z,5.87
2022-11-24T08:46:26.007Z,5.85
2022-11-24T08:49:28.695Z,5.93
2022-11-24T08:52:31.874Z,5.85
2022-11-24T08:55:34.414Z,6.00
2022-11-24T08:58:38.014Z,6.21
2022-11-24T09:01:41.865Z,6.26
2022-11-24T09:04:45.796Z,6.41
2022-11-24T09:07:48.362Z,6.44
2022-11-24T09:10:51.579Z,6.51
2022-11-24T09:13:55.404Z,6.38
2022-11-24T09:16:58.249Z,6.44
2022-11-24T09:20:00.812Z,6.47
2022-11-24T09:23:03.826Z,6.42
2022-11-24T09:26:12.438Z,6.43
2022-11-24T09:29:15.394Z,6.51
2022-11-24T09:32:17.961Z,6.72
2022-11-24T09:35:21.208Z,6.90
2022-11-24T09:38:24.276Z,7.12
2022-11-24T09:41:38.479Z,7.31
2022-11-24T09:45:04.934Z,7.58
2022-11-24T09:48:32.090Z,7.79
2022-11-24T09:51:37.160Z,7.97
2022-11-24T09:54:52.741Z,8.00
2022-11-24T09:58:09.642Z,7.92
2022-11-24T10:01:18.140Z,7.70
2022-11-24T10:04:26.124Z,7.43
2022-11-24T10:07:42.666Z,7.32
2022-11-24T10:11:00.985Z,7.09
2022-11-24T10:14:26.307Z,6.89
2022-11-24T10:18:09.303Z,6.77
2022-11-24T10:21:35.446Z,6.71
2022-11-24T10:25:00.011Z,6.65
2022-11-24T10:28:05.094Z,6.57
2022-11-24T10:31:25.037Z,6.57
2022-11-24T10:34:34.508Z,6.52
2022-11-24T10:37:43.702Z,6.65
2022-11-24T10:41:07.856Z,6.66
2022-11-24T10:44:15.060Z,6.67
2022-11-24T10:47:22.888Z,6.76
2022-11-24T10:50:28.231Z,6.89
2022-11-24T10:53:31.288Z,7.02
2022-11-24T10:56:41.729Z,7.14
2022-11-24T10:59:44.381Z,7.20
2022-11-24T11:03:09.881Z,7.08
2022-11-24T11:06:15.086Z,7.19
2022-11-24T11:09:23.283Z,7.27
2022-11-24T11:12:45.707Z,7.32
2022-11-24T11:15:48.909Z,7.38
2022-11-24T11:18:52.271Z,7.63
2022-11-24T11:22:15.949Z,7.67
2022-11-24T11:25:34.025Z,7.79
2022-11-24T11:28:36.828Z,7.73
2022-11-24T11:31:41.160Z,7.80
2022-11-24T11:34:44.603Z,7.89
2022-11-24T11:37:48.892Z,8.14
2022-11-24T11:40:52.254Z,8.26
2022-11-24T11:44:10.848Z,8.41
2022-11-24T11:47:29.302Z,8.44
2022-11-24T11:51:06.667Z,8.54
2022-11-24T11:54:16.834Z,8.25
2022-11-24T11:57:31.163Z,8.20
2022-11-24T12:00:39.799Z,8.50
2022-11-24T12:04:01.421Z,8.66
2022-11-24T12:07:32.183Z,8.76
2022-11-24T12:10:42.441Z,8.75
2022-11-24T12:14:11.226Z,8.85
2022-11-24T12:17:56.729Z,8.77
2022-11-24T12:21:26.145Z,8.72
2022-11-24T12:24:42.844Z,8.41
2022-11-24T12:27:56.882Z,8.12
2022-11-24T12:31:02.494Z,7.82
2022-11-24T12:34:14.717Z,7.61
2022-11-24T12:37:27.301Z,7.68
2022-11-24T12:41:25.434Z,7.62
2022-11-24T12:44:44.224Z,7.49
2022-11-24T12:47:46.785Z,7.48
2022-11-24T12:50:53.231Z,7.49
2022-11-24T12:53:58.240Z,7.40
2022-11-24T12:57:10.895Z,7.39
2022-11-24T13:00:21.816Z,7.32
2022-11-24T13:03:32.394Z,7.12
2022-11-24T13:06:37.863Z,7.00
2022-11-24T13:10:19.004Z,7.08
2022-11-24T13:13:26.296Z,7.29
2022-11-24T13:16:44.409Z,7.39
2022-11-24T13:19:51.850Z,7.47
2022-11-24T13:23:03.506Z,7.49
2022-11-24T13:26:43.641Z,7.48
2022-11-24T13:29:48.518Z,7.54
2022-11-24T13:33:01.038Z,7.58
2022-11-24T13:36:04.361Z,7.48
2022-11-24T13:39:17.916Z,7.59
2022-11-24T13:42:42.365Z,7.62
2022-11-24T13:45:46.921Z,7.79
2022-11-24T13:48:49.677Z,7.88
2022-11-24T13:52:36.265Z,7.91
2022-11-24T13:55:41.060Z,7.99
2022-11-24T13:58:55.020Z,8.04
2022-11-24T14:01:59.003Z,7.97
2022-11-24T14:05:01.913Z,7.90
2022-11-24T14:08:07.656Z,7.68
2022-11-24T14:11:17.004Z,7.60
2022-11-24T14:14:21.206Z,7.63
2022-11-24T14:17:28.497Z,8.06
2022-11-24T14:20:31.246Z,8.24
2022-11-24T14:23:34.171Z,8.44
2022-11-24T14:26:39.342Z,8.14
2022-11-24T14:29:57.387Z,7.82
2022-11-24T14:33:02.899Z,7.59
2022-11-24T14:36:17.598Z,7.37
2022-11-24T14:39:25.520Z,7.19
2022-11-24T14:42:28.684Z,7.11
2022-11-24T14:45:32.046Z,6.96
2022-11-24T14:48:50.424Z,6.98
2022-11-24T14:52:02.408Z,6.90
2022-11-24T14:55:21.783Z,6.79
2022-11-24T14:58:40.472Z,6.68
2022-11-24T15:01:45.037Z,6.59
2022-11-24T15:05:03.232Z,6.49
2022-11-24T15:08:13.460Z,6.42
2022-11-24T15:11:16.235Z,6.43
2022-11-24T15:14:44.234Z,6.33
2022-11-24T15:17:58.268Z,6.23
2022-11-24T15:21:01.273Z,6.13
2022-11-24T15:24:18.379Z,6.10
2022-11-24T15:27:21.094Z,6.10
2022-11-24T15:30:24.001Z,6.04
2022-11-24T15:33:27.164Z,6.09
2022-11-24T15:36:29.636Z,5.93
2022-11-24T15:39:32.575Z,5.90
2022-11-24T15:42:35.184Z,5.71
2022-11-24T15:45:37.905Z,5.48
2022-11-24T15:48:41.894Z,5.47
2022-11-24T15:51:45.678Z,5.39
2022-11-24T15:54:51.542Z,5.32
2022-11-24T15:57:54.316Z,5.15
2022-11-24T16:00:57.076Z,5.11
2022-11-24T16:04:00.741Z,5.33
2022-11-24T16:07:06.247Z,5.27
2022-11-24T16:10:21.716Z,5.16
2022-11-24T16:13:24.286Z,5.04
2022-11-24T16:16:29.115Z,5.09
2022-11-24T16:19:31.695Z,5.09
2022-11-24T16:22:34.530Z,5.10
2022-11-24T16:25:37.083Z,5.18
2022-11-24T16:28:40.657Z,5.10
2022-11-24T16:31:43.557Z,5.07
2022-11-24T16:34:46.301Z,5.01
2022-11-24T16:37:48.930Z,4.95
2022-11-24T16:40:53.008Z,4.87
2022-11-24T16:43:55.616Z,4.88
2022-11-24T16:46:58.415Z,4.83
2022-11-24T16:50:01.486Z,4.76
2022-11-24T16:53:04.333Z,4.75
2022-11-24T16:56:08.190Z,4.73
2022-11-24T16:59:11.899Z,4.70
2022-11-24T17:02:14.528Z,4.71
2022-11-24T17:05:17.271Z,4.70
2022-11-24T17:08:19.796Z,4.64
2022-11-24T17:11:25.036Z,4.62
2022-11-24T17:14:27.613Z,4.51
2022-11-24T17:17:30.489Z,4.58
